createdAt,value
2017-08-19T00:00:28.570Z,86.08
2017-08-19T00:02:21.785Z,86.08
2017-08-19T00:03:22.226Z,86.65
2017-08-19T00:04:22.682Z,86.36
2017-08-19T00:05:23.105Z,87.52
2017-08-19T00:07:16.324Z,86.75
2017-08-19T00:08:16.767Z,85.55
2017-08-19T00:09:17.207Z,86.56
2017-08-19T00:10:17.643Z,86.56
2017-08-19T00:12:10.859Z,86.42
2017-08-19T00:13:11.302Z,86.61
2017-08-19T00:14:11.744Z,85.94
2017-08-19T00:15:12.181Z,85.36
2017-08-19T00:16:12.622Z,85.55
2017-08-19T00:17:13.061Z,86.18
2017-08-19T00:19:06.287Z,85.46
2017-08-19T00:20:06.746Z,84.74
2017-08-19T00:21:07.165Z,84.78
2017-08-19T00:22:07.606Z,85.22
2017-08-19T00:23:08.037Z,85.41
2017-08-19T00:24:08.503Z,84.84
2017-08-19T00:26:01.696Z,84.94
2017-08-19T00:27:02.149Z,83.06
2017-08-19T00:28:02.579Z,86.85
2017-08-19T00:29:03.045Z,87.71
2017-08-19T00:30:56.250Z,87.09
2017-08-19T00:32:49.510Z,86.04
2017-08-19T00:34:42.708Z,85.51
2017-08-19T00:36:35.915Z,83.97
2017-08-19T00:38:29.156Z,84.74
2017-08-19T00:39:29.604Z,83.78
2017-08-19T00:40:30.042Z,83.97
2017-08-19T00:42:23.263Z,84.55
2017-08-19T00:44:17.472Z,86.22
2017-08-19T00:45:17.909Z,85.84
2017-08-19T00:46:18.338Z,86.65
2017-08-19T00:47:18.775Z,86.52
2017-08-19T00:49:12.000Z,85.99
2017-08-19T00:50:12.448Z,84.64
2017-08-19T00:51:12.889Z,84.84
2017-08-19T00:53:06.100Z,84.45
2017-08-19T00:54:59.316Z,83.07
2017-08-19T00:56:52.544Z,83.07
2017-08-19T00:58:45.773Z,82.49
2017-08-19T00:59:46.211Z,82.68
2017-08-19T01:00:46.649Z,81.63
2017-08-19T01:01:47.078Z,81.92
2017-08-19T01:03:41.283Z,81.43
2017-08-19T01:04:41.735Z,80.28
2017-08-19T01:05:42.155Z,81.19
2017-08-19T01:06:42.597Z,81.34
2017-08-19T01:08:35.830Z,82.59
2017-08-19T01:10:29.999Z,82.49
2017-08-19T01:11:30.443Z,81.82
2017-08-19T01:12:30.887Z,81.82
2017-08-19T01:13:31.333Z,81.53
2017-08-19T01:14:31.757Z,81.72
2017-08-19T01:16:25.973Z,81.53
2017-08-19T01:17:26.411Z,81.72
2017-08-19T01:18:26.839Z,80.86
2017-08-19T01:19:27.301Z,81.24
2017-08-19T01:21:20.492Z,81.24
2017-08-19T01:23:13.729Z,85.50
2017-08-19T01:24:14.178Z,85.69
2017-08-19T01:25:14.624Z,85.55
2017-08-19T01:26:15.031Z,84.88
2017-08-19T01:28:08.243Z,83.20
2017-08-19T01:30:01.479Z,80.86
2017-08-19T01:31:54.692Z,82.15
2017-08-19T01:33:47.930Z,80.51
2017-08-19T01:34:48.376Z,81.86
2017-08-19T01:35:48.791Z,81.96
2017-08-19T01:36:49.231Z,82.43
2017-08-19T01:38:42.449Z,82.43
2017-08-19T01:40:35.674Z,82.15
2017-08-19T01:41:36.123Z,82.30
2017-08-19T01:42:36.563Z,81.76
2017-08-19T01:43:36.991Z,81.72
2017-08-19T01:45:30.238Z,81.34
2017-08-19T01:47:23.453Z,80.76
2017-08-19T01:48:23.886Z,80.96
2017-08-19T01:49:24.316Z,80.28
2017-08-19T01:51:17.559Z,82.09
2017-08-19T01:53:11.772Z,82.05
2017-08-19T01:54:12.213Z,83.73
2017-08-19T01:55:12.643Z,85.22
2017-08-19T01:56:13.073Z,83.87
2017-08-19T01:58:06.305Z,82.82
2017-08-19T01:59:59.512Z,82.63
2017-08-19T02:00:59.978Z,81.48
2017-08-19T02:02:00.394Z,85.46
2017-08-19T02:03:00.847Z,86.65
2017-08-19T02:04:55.048Z,87.13
2017-08-19T02:05:55.494Z,86.36
2017-08-19T02:07:48.712Z,85.32
2017-08-19T02:08:49.160Z,84.07
2017-08-19T02:09:49.601Z,83.16
2017-08-19T02:10:50.038Z,83.07
2017-08-19T02:12:43.272Z,82.30
2017-08-19T02:13:43.713Z,81.92
2017-08-19T02:14:44.148Z,82.10
2017-08-19T02:15:44.574Z,81.10
2017-08-19T02:17:37.809Z,81.63
2017-08-19T02:18:38.234Z,82.15
2017-08-19T02:19:38.686Z,82.97
2017-08-19T02:20:39.119Z,84.12
2017-08-19T02:22:32.337Z,83.16
2017-08-19T02:24:25.558Z,82.07
2017-08-19T02:25:25.987Z,81.82
2017-08-19T02:26:26.421Z,83.74
2017-08-19T02:27:26.859Z,84.60
2017-08-19T02:29:20.113Z,83.84
2017-08-19T02:31:13.295Z,83.51
2017-08-19T02:32:13.746Z,83.45
2017-08-19T02:33:14.179Z,84.22
2017-08-19T02:34:14.617Z,82.01
2017-08-19T02:36:07.828Z,86.66
2017-08-19T02:38:02.025Z,86.72
2017-08-19T02:39:56.237Z,85.85
2017-08-19T02:40:56.680Z,83.97
2017-08-19T02:41:57.122Z,87.82
2017-08-19T02:42:57.551Z,87.72
2017-08-19T02:43:57.985Z,87.24
2017-08-19T02:45:52.184Z,86.38
2017-08-19T02:46:52.630Z,88.10
2017-08-19T02:47:53.098Z,87.62
2017-08-19T02:48:53.513Z,87.29
2017-08-19T02:50:46.712Z,87.43
2017-08-19T02:51:47.174Z,87.92
2017-08-19T02:52:47.599Z,87.49
2017-08-19T02:53:48.031Z,87.19
2017-08-19T02:54:48.464Z,86.00
2017-08-19T02:55:48.904Z,85.62
2017-08-19T02:56:49.360Z,86.48
2017-08-19T02:58:43.562Z,85.33
2017-08-19T02:59:44.004Z,85.95
2017-08-19T03:00:44.436Z,86.47
2017-08-19T03:01:44.876Z,89.30
2017-08-19T03:03:39.075Z,88.39
2017-08-19T03:04:39.520Z,88.25
2017-08-19T03:05:39.954Z,88.53
2017-08-19T03:06:40.393Z,88.49
2017-08-19T03:08:33.607Z,89.07
2017-08-19T03:09:34.049Z,86.95
2017-08-19T03:10:34.483Z,88.01
2017-08-19T03:11:34.921Z,87.72
2017-08-19T03:13:28.132Z,86.05
2017-08-19T03:14:28.575Z,85.95
2017-08-19T03:15:29.013Z,86.58
2017-08-19T03:16:29.454Z,86.48
2017-08-19T03:17:29.889Z,86.10
2017-08-19T03:19:23.099Z,85.71
2017-08-19T03:21:16.316Z,84.12
2017-08-19T03:23:09.533Z,86.76
2017-08-19T03:25:02.770Z,89.25
2017-08-19T03:26:55.982Z,89.97
2017-08-19T03:27:56.423Z,90.02
2017-08-19T03:28:56.864Z,89.25
2017-08-19T03:29:57.302Z,89.50
2017-08-19T03:30:57.738Z,88.01
2017-08-19T03:32:51.938Z,88.82
2017-08-19T03:33:52.384Z,88.57
2017-08-19T03:34:52.817Z,89.54
2017-08-19T03:35:53.276Z,89.73
2017-08-19T03:37:46.465Z,88.92
2017-08-19T03:38:46.915Z,88.68
2017-08-19T03:39:47.389Z,88.01
2017-08-19T03:40:47.791Z,87.19
2017-08-19T03:42:41.000Z,86.43
2017-08-19T03:43:41.455Z,85.85
2017-08-19T03:44:41.882Z,85.85
2017-08-19T03:45:42.326Z,85.24
2017-08-19T03:47:35.534Z,85.81
2017-08-19T03:48:35.974Z,85.62
2017-08-19T03:49:36.412Z,84.66
2017-08-19T03:50:36.849Z,85.52
2017-08-19T03:51:37.292Z,83.70
2017-08-19T03:52:37.719Z,83.98
2017-08-19T03:53:38.162Z,84.08
2017-08-19T03:54:38.594Z,84.18
2017-08-19T03:55:39.031Z,85.41
2017-08-19T03:56:39.468Z,86.09
2017-08-19T03:58:32.685Z,86.38
2017-08-19T03:59:33.135Z,85.57
2017-08-19T04:00:33.566Z,86.18
2017-08-19T04:01:34.012Z,86.24
2017-08-19T04:02:34.446Z,85.85
2017-08-19T04:04:27.663Z,85.85
2017-08-19T04:05:28.126Z,86.24
2017-08-19T04:06:28.543Z,84.99
2017-08-19T04:07:28.973Z,85.75
2017-08-19T04:08:29.426Z,86.05
2017-08-19T04:10:22.630Z,86.43
2017-08-19T04:11:23.078Z,86.85
2017-08-19T04:12:23.517Z,87.87
2017-08-19T04:13:23.953Z,87.92
2017-08-19T04:15:17.168Z,89.16
2017-08-19T04:16:17.612Z,88.15
2017-08-19T04:17:18.049Z,88.92
2017-08-19T04:18:18.480Z,89.11
2017-08-19T04:19:18.921Z,89.07
2017-08-19T04:21:12.150Z,88.68
2017-08-19T04:22:12.595Z,87.77
2017-08-19T04:24:05.816Z,86.47
2017-08-19T04:25:06.259Z,88.24
2017-08-19T04:26:06.696Z,88.10
2017-08-19T04:27:07.134Z,88.35
2017-08-19T04:29:00.359Z,87.77
2017-08-19T04:30:00.798Z,86.91
2017-08-19T04:31:01.228Z,87.29
2017-08-19T04:32:01.661Z,87.24
2017-08-19T04:33:55.870Z,88.39
2017-08-19T04:34:56.314Z,88.10
2017-08-19T04:35:56.754Z,89.64
2017-08-19T04:36:57.186Z,89.78
2017-08-19T04:37:57.625Z,89.26
2017-08-19T04:39:50.841Z,88.78
2017-08-19T04:40:51.290Z,88.15
2017-08-19T04:41:51.728Z,88.63
2017-08-19T04:42:52.158Z,89.40
2017-08-19T04:43:52.609Z,90.02
2017-08-19T04:45:45.823Z,88.92
2017-08-19T04:46:46.277Z,89.69
2017-08-19T04:47:46.706Z,89.88
2017-08-19T04:48:47.146Z,89.92
2017-08-19T04:50:40.360Z,89.87
2017-08-19T04:51:40.800Z,90.12
2017-08-19T04:52:41.238Z,89.98
2017-08-19T04:53:41.680Z,89.88
2017-08-19T04:54:42.114Z,89.69
2017-08-19T04:55:42.546Z,90.31
2017-08-19T04:56:42.987Z,90.55
2017-08-19T04:58:37.187Z,90.02
2017-08-19T04:59:37.632Z,89.88
2017-08-19T05:00:38.077Z,89.78
2017-08-19T05:01:38.511Z,89.78
2017-08-19T05:02:38.952Z,89.40
2017-08-19T05:03:39.388Z,89.30
2017-08-19T05:04:39.822Z,89.78
2017-08-19T05:05:40.262Z,89.59
2017-08-19T05:07:34.460Z,89.30
2017-08-19T05:08:34.907Z,89.45
2017-08-19T05:09:35.346Z,89.36
2017-08-19T05:10:35.788Z,88.78
2017-08-19T05:11:36.251Z,88.78
2017-08-19T05:13:30.428Z,89.40
2017-08-19T05:14:30.875Z,90.08
2017-08-19T05:15:31.314Z,89.60
2017-08-19T05:16:31.753Z,89.69
2017-08-19T05:18:25.948Z,90.08
2017-08-19T05:19:26.392Z,91.23
2017-08-19T05:20:26.827Z,90.37
2017-08-19T05:21:27.271Z,90.27
2017-08-19T05:22:27.709Z,89.98
2017-08-19T05:24:21.906Z,90.12
2017-08-19T05:25:22.347Z,90.31
2017-08-19T05:26:22.785Z,91.08
2017-08-19T05:27:23.231Z,90.80
2017-08-19T05:28:23.662Z,90.84
2017-08-19T05:29:24.099Z,91.56
2017-08-19T05:30:24.571Z,90.60
2017-08-19T05:32:17.755Z,90.84
2017-08-19T05:33:18.205Z,90.99
2017-08-19T05:34:18.641Z,90.80
2017-08-19T05:35:19.080Z,90.56
2017-08-19T05:36:19.514Z,90.46
2017-08-19T05:37:19.955Z,91.23
2017-08-19T05:39:13.169Z,90.46
2017-08-19T05:40:13.613Z,90.99
2017-08-19T05:41:14.050Z,90.60
2017-08-19T05:42:14.494Z,90.66
2017-08-19T05:43:14.922Z,91.04
2017-08-19T05:44:15.363Z,91.42
2017-08-19T05:46:08.585Z,90.66
2017-08-19T05:47:09.025Z,90.17
2017-08-19T05:48:09.462Z,90.84
2017-08-19T05:49:09.899Z,90.75
2017-08-19T05:50:10.331Z,90.66
2017-08-19T05:51:10.772Z,90.66
2017-08-19T05:53:03.990Z,90.80
2017-08-19T05:54:04.433Z,90.75
2017-08-19T05:55:04.870Z,90.98
2017-08-19T05:56:05.304Z,90.36
2017-08-19T05:57:05.744Z,90.89
2017-08-19T05:58:58.958Z,91.28
2017-08-19T05:59:59.405Z,90.94
2017-08-19T06:00:59.838Z,91.28
2017-08-19T06:02:00.276Z,90.80
2017-08-19T06:03:00.709Z,90.12
2017-08-19T06:04:01.150Z,90.65
2017-08-19T06:05:01.589Z,90.84
2017-08-19T06:06:54.804Z,90.31
2017-08-19T06:07:55.249Z,90.45
2017-08-19T06:08:55.688Z,90.75
2017-08-19T06:09:56.124Z,90.60
2017-08-19T06:10:56.565Z,91.37
2017-08-19T06:12:49.779Z,90.80
2017-08-19T06:14:43.005Z,90.22
2017-08-19T06:15:43.450Z,90.60
2017-08-19T06:16:43.885Z,90.60
2017-08-19T06:17:44.418Z,90.03
2017-08-19T06:19:37.544Z,91.56
2017-08-19T06:20:37.989Z,90.56
2017-08-19T06:21:38.426Z,90.60
2017-08-19T06:22:38.863Z,90.46
2017-08-19T06:23:39.304Z,90.75
2017-08-19T06:25:32.522Z,90.80
2017-08-19T06:26:32.971Z,90.89
2017-08-19T06:27:33.403Z,90.31
2017-08-19T06:28:33.841Z,90.45
2017-08-19T06:29:34.292Z,90.84
2017-08-19T06:30:34.718Z,90.21
2017-08-19T06:31:35.160Z,90.17
2017-08-19T06:32:35.596Z,89.98
2017-08-19T06:34:28.836Z,90.60
2017-08-19T06:35:29.278Z,90.45
2017-08-19T06:36:29.704Z,90.70
2017-08-19T06:37:30.152Z,90.12
2017-08-19T06:38:30.581Z,90.42
2017-08-19T06:39:31.023Z,90.70
2017-08-19T06:40:31.466Z,91.38
2017-08-19T06:42:24.703Z,90.94
2017-08-19T06:43:25.133Z,90.56
2017-08-19T06:44:25.571Z,91.33
2017-08-19T06:45:26.009Z,90.94
2017-08-19T06:46:26.450Z,90.94
2017-08-19T06:48:19.660Z,90.84
2017-08-19T06:49:20.109Z,91.04
2017-08-19T06:50:20.549Z,90.90
2017-08-19T06:51:20.997Z,90.85
2017-08-19T06:52:21.423Z,92.05
2017-08-19T06:54:14.642Z,91.47
2017-08-19T06:56:07.878Z,91.09
2017-08-19T06:57:08.321Z,90.37
2017-08-19T06:58:08.757Z,91.81
2017-08-19T06:59:09.197Z,91.66
2017-08-19T07:00:09.634Z,90.56
2017-08-19T07:02:02.862Z,90.42
2017-08-19T07:03:56.070Z,90.66
2017-08-19T07:04:56.514Z,90.61
2017-08-19T07:05:56.949Z,91.04
2017-08-19T07:06:57.393Z,90.27
2017-08-19T07:07:57.829Z,90.52
2017-08-19T07:09:51.049Z,89.60
2017-08-19T07:10:51.492Z,89.89
2017-08-19T07:11:51.929Z,90.12
2017-08-19T07:12:52.379Z,89.83
2017-08-19T07:13:52.813Z,89.45
2017-08-19T07:15:46.028Z,89.64
2017-08-19T07:16:46.469Z,88.87
2017-08-19T07:17:46.923Z,89.16
2017-08-19T07:18:47.358Z,89.45
2017-08-19T07:20:40.561Z,89.26
2017-08-19T07:21:41.005Z,89.98
2017-08-19T07:22:41.449Z,90.80
2017-08-19T07:23:41.890Z,90.61
2017-08-19T07:24:42.327Z,90.61
2017-08-19T07:26:35.549Z,90.42
2017-08-19T07:27:36.001Z,90.61
2017-08-19T07:28:36.454Z,90.37
2017-08-19T07:29:36.880Z,89.79
2017-08-19T07:31:30.094Z,90.08
2017-08-19T07:32:30.541Z,90.08
2017-08-19T07:33:30.983Z,90.31
2017-08-19T07:34:31.420Z,89.74
2017-08-19T07:35:31.859Z,89.74
2017-08-19T07:37:25.080Z,88.82
2017-08-19T07:38:25.534Z,88.73
2017-08-19T07:39:25.971Z,88.19
2017-08-19T07:40:26.413Z,88.44
2017-08-19T07:41:26.852Z,89.07
2017-08-19T07:42:27.302Z,88.82
2017-08-19T07:43:27.736Z,88.92
2017-08-19T07:44:28.173Z,89.07
2017-08-19T07:45:28.620Z,89.11
2017-08-19T07:46:29.068Z,88.82
2017-08-19T07:47:29.498Z,88.57
2017-08-19T07:48:29.943Z,88.92
2017-08-19T07:49:30.389Z,88.68
2017-08-19T07:50:30.827Z,90.03
2017-08-19T07:52:24.055Z,88.15
2017-08-19T07:53:24.510Z,87.29
2017-08-19T07:54:24.958Z,87.29
2017-08-19T07:55:25.389Z,87.52
2017-08-19T07:57:18.609Z,88.59
2017-08-19T07:58:19.058Z,88.82
2017-08-19T07:59:19.495Z,87.67
2017-08-19T08:00:19.956Z,87.33
2017-08-19T08:01:20.384Z,87.23
2017-08-19T08:02:20.826Z,86.60
2017-08-19T08:03:21.271Z,85.74
2017-08-19T08:05:14.492Z,84.86
2017-08-19T08:06:14.946Z,82.83
2017-08-19T08:07:15.398Z,82.60
2017-08-19T08:08:15.831Z,83.96
2017-08-19T08:09:16.274Z,84.92
2017-08-19T08:10:16.714Z,86.42
2017-08-19T08:11:17.174Z,87.38
2017-08-19T08:13:11.375Z,84.87
2017-08-19T08:14:11.827Z,83.96
2017-08-19T08:15:12.275Z,83.52
2017-08-19T08:16:12.727Z,82.75
2017-08-19T08:18:05.948Z,84.25
2017-08-19T08:19:06.400Z,83.96
2017-08-19T08:20:06.847Z,84.00
2017-08-19T08:21:07.293Z,83.28
2017-08-19T08:23:00.529Z,80.76
2017-08-19T08:24:00.983Z,80.62
2017-08-19T08:25:01.426Z,83.04
2017-08-19T08:26:54.658Z,81.06
2017-08-19T08:27:55.111Z,81.70
2017-08-19T08:28:55.561Z,81.29
2017-08-19T08:29:56.006Z,80.91
2017-08-19T08:30:56.449Z,81.01
2017-08-19T08:31:56.896Z,79.60
2017-08-19T08:32:57.345Z,80.12
2017-08-19T08:33:57.787Z,77.71
2017-08-19T08:34:58.235Z,76.65
2017-08-19T08:35:58.682Z,77.81
2017-08-19T08:36:59.128Z,76.75
2017-08-19T08:37:59.578Z,75.68
2017-08-19T08:39:00.023Z,75.30
2017-08-19T08:40:00.469Z,75.88
2017-08-19T08:41:00.913Z,75.14
2017-08-19T08:42:01.359Z,74.12
2017-08-19T08:43:01.814Z,72.96
2017-08-19T08:44:55.039Z,71.28
2017-08-19T08:46:48.289Z,71.61
2017-08-19T08:47:48.743Z,71.51
2017-08-19T08:48:49.188Z,71.32
2017-08-19T08:49:49.635Z,72.95
2017-08-19T08:50:50.082Z,75.32
2017-08-19T08:51:50.535Z,73.66
2017-08-19T08:52:50.990Z,71.70
2017-08-19T08:54:44.207Z,71.73
2017-08-19T08:55:44.665Z,71.41
2017-08-19T08:56:45.111Z,71.79
2017-08-19T08:57:45.558Z,72.18
2017-08-19T08:58:46.003Z,72.37
2017-08-19T08:59:46.448Z,71.70
2017-08-19T09:00:46.893Z,72.14
2017-08-19T09:01:47.336Z,73.20
2017-08-19T09:02:47.779Z,73.14
2017-08-19T09:03:48.227Z,72.41
2017-08-19T09:04:48.668Z,71.48
2017-08-19T09:05:49.116Z,69.90
2017-08-19T09:06:49.560Z,71.12
2017-08-19T09:07:50.003Z,71.15
2017-08-19T09:08:50.480Z,69.74
2017-08-19T09:10:43.694Z,69.58
2017-08-19T09:11:44.151Z,67.59
2017-08-19T09:12:44.593Z,64.98
2017-08-19T09:13:45.044Z,64.82
2017-08-19T09:14:45.488Z,63.98
2017-08-19T09:15:45.934Z,62.66
2017-08-19T09:16:46.383Z,62.12
2017-08-19T09:17:46.833Z,63.15
2017-08-19T09:19:41.058Z,63.11
2017-08-19T09:21:35.288Z,62.02
2017-08-19T09:22:35.746Z,62.76
2017-08-19T09:23:36.196Z,66.75
2017-08-19T09:24:36.646Z,64.11
2017-08-19T09:25:37.116Z,63.76
2017-08-19T09:27:31.320Z,60.21
2017-08-19T09:28:31.778Z,61.08
2017-08-19T09:29:32.226Z,58.70
2017-08-19T09:30:32.681Z,58.34
2017-08-19T09:31:33.128Z,59.28
2017-08-19T09:33:26.366Z,61.34
2017-08-19T09:34:26.827Z,59.53
2017-08-19T09:35:27.280Z,56.59
2017-08-19T09:36:27.738Z,54.64
2017-08-19T09:38:20.982Z,60.40
2017-08-19T09:39:21.451Z,59.56
2017-08-19T09:40:21.901Z,57.86
2017-08-19T09:42:15.157Z,56.92
2017-08-19T09:43:15.669Z,57.87
2017-08-19T09:44:16.085Z,54.74
2017-08-19T09:45:16.538Z,55.04
2017-08-19T09:47:09.778Z,57.01
2017-08-19T09:48:10.245Z,57.53
2017-08-19T09:49:10.702Z,56.46
2017-08-19T09:50:11.156Z,56.65
2017-08-19T09:51:11.607Z,56.62
2017-08-19T09:52:12.057Z,56.24
2017-08-19T09:53:12.516Z,56.40
2017-08-19T09:54:12.975Z,54.91
2017-08-19T09:55:13.419Z,54.64
2017-08-19T09:56:13.876Z,55.15
2017-08-19T09:57:14.334Z,57.63
2017-08-19T09:58:14.788Z,59.08
2017-08-19T09:59:15.232Z,57.82
2017-08-19T10:00:15.690Z,60.31
2017-08-19T10:02:08.918Z,66.04
2017-08-19T10:03:09.384Z,66.11
2017-08-19T10:04:09.832Z,68.10
2017-08-19T10:05:10.281Z,66.20
2017-08-19T10:06:10.725Z,66.52
2017-08-19T10:07:11.172Z,65.17
2017-08-19T10:08:11.624Z,65.56
2017-08-19T10:10:05.851Z,69.12
2017-08-19T10:11:59.093Z,70.89
2017-08-19T10:13:53.306Z,69.64
2017-08-19T10:14:53.762Z,69.71
2017-08-19T10:15:54.206Z,69.42
2017-08-19T10:16:54.654Z,70.54
2017-08-19T10:17:55.099Z,69.84
2017-08-19T10:18:55.553Z,68.97
2017-08-19T10:20:48.774Z,65.72
2017-08-19T10:21:49.230Z,66.08
2017-08-19T10:22:49.677Z,68.59
2017-08-19T10:23:50.126Z,67.27
2017-08-19T10:25:43.356Z,66.30
2017-08-19T10:26:43.813Z,65.75
2017-08-19T10:27:44.258Z,65.05
2017-08-19T10:28:44.707Z,65.56
2017-08-19T10:29:45.154Z,65.75
2017-08-19T10:30:45.603Z,64.11
2017-08-19T10:32:38.834Z,63.53
2017-08-19T10:33:39.294Z,63.15
2017-08-19T10:34:39.737Z,63.70
2017-08-19T10:35:40.187Z,67.20
2017-08-19T10:37:33.417Z,67.04
2017-08-19T10:38:33.877Z,65.63
2017-08-19T10:39:34.323Z,60.99
2017-08-19T10:40:34.772Z,60.16
2017-08-19T10:42:28.003Z,58.93
2017-08-19T10:44:21.309Z,58.32
2017-08-19T10:46:14.537Z,57.29
2017-08-19T10:47:15.004Z,57.82
2017-08-19T10:48:15.438Z,56.04
2017-08-19T10:49:15.889Z,54.16
2017-08-19T10:50:16.339Z,50.79
2017-08-19T10:52:10.561Z,50.50
2017-08-19T10:54:04.801Z,51.35
2017-08-19T10:55:05.266Z,53.23
2017-08-19T10:56:05.699Z,52.58
2017-08-19T10:57:06.157Z,56.50
2017-08-19T10:58:06.604Z,56.30
2017-08-19T10:59:07.056Z,56.30
2017-08-19T11:00:07.505Z,55.60
2017-08-19T11:02:00.746Z,62.98
2017-08-19T11:03:01.195Z,62.89
2017-08-19T11:04:01.642Z,60.77
2017-08-19T11:05:02.092Z,64.21
2017-08-19T11:06:02.541Z,64.15
2017-08-19T11:07:03.002Z,64.63
2017-08-19T11:08:03.441Z,62.44
2017-08-19T11:09:56.698Z,59.28
2017-08-19T11:10:57.131Z,59.19
2017-08-19T11:11:57.576Z,59.48
2017-08-19T11:12:58.028Z,61.60
2017-08-19T11:13:58.474Z,61.19
2017-08-19T11:14:58.920Z,63.34
2017-08-19T11:15:59.372Z,61.51
2017-08-19T11:16:59.821Z,62.79
2017-08-19T11:18:53.053Z,63.12
2017-08-19T11:19:53.511Z,61.19
2017-08-19T11:20:53.959Z,60.61
2017-08-19T11:21:54.403Z,60.64
2017-08-19T11:22:54.852Z,60.86
2017-08-19T11:23:55.299Z,60.89
2017-08-19T11:24:55.755Z,58.82
2017-08-19T11:26:48.988Z,54.96
2017-08-19T11:28:42.241Z,53.61
2017-08-19T11:29:42.704Z,54.21
2017-08-19T11:30:43.165Z,52.33
2017-08-19T11:32:36.407Z,48.73
2017-08-19T11:33:36.876Z,48.85
2017-08-19T11:34:37.335Z,49.22
2017-08-19T11:35:37.785Z,48.93
2017-08-19T11:36:38.240Z,49.58
2017-08-19T11:38:32.478Z,51.67
2017-08-19T11:40:26.728Z,53.91
2017-08-19T11:41:27.183Z,55.24
2017-08-19T11:42:27.633Z,56.21
2017-08-19T11:43:28.094Z,55.43
2017-08-19T11:45:22.337Z,55.53
2017-08-19T11:46:22.774Z,56.40
2017-08-19T11:47:23.224Z,55.73
2017-08-19T11:48:23.673Z,55.73
2017-08-19T11:49:24.125Z,56.15
2017-08-19T11:50:24.591Z,57.48
2017-08-19T11:51:25.025Z,59.12
2017-08-19T11:52:25.466Z,59.28
2017-08-19T11:53:25.919Z,60.54
2017-08-19T11:54:26.362Z,60.44
2017-08-19T11:55:26.813Z,60.44
2017-08-19T11:56:27.273Z,60.83
2017-08-19T11:57:27.704Z,61.38
2017-08-19T11:58:28.151Z,62.15
2017-08-19T11:59:28.597Z,62.25
2017-08-19T12:00:29.048Z,61.77
2017-08-19T12:02:23.277Z,61.57
2017-08-19T12:03:23.732Z,62.34
2017-08-19T12:04:24.173Z,62.54
2017-08-19T12:05:24.618Z,62.82
2017-08-19T12:06:25.061Z,63.02
2017-08-19T12:07:25.510Z,63.02
2017-08-19T12:08:25.959Z,63.40
2017-08-19T12:10:19.190Z,65.53
2017-08-19T12:12:41.356Z,64.05
2017-08-19T12:13:12.892Z,63.67
2017-08-19T12:14:13.344Z,63.57
2017-08-19T12:15:13.783Z,64.34
2017-08-19T12:16:14.215Z,63.85
2017-08-19T12:18:07.441Z,65.88
2017-08-19T12:19:07.897Z,66.27
2017-08-19T12:20:08.342Z,66.30
2017-08-19T12:21:08.790Z,65.27
2017-08-19T12:23:03.002Z,64.05
2017-08-19T12:24:03.446Z,64.15
2017-08-19T12:25:03.891Z,64.05
2017-08-19T12:26:04.332Z,64.15
2017-08-19T12:27:04.801Z,64.72
2017-08-19T12:28:58.013Z,66.52
2017-08-19T12:29:58.462Z,66.36
2017-08-19T12:30:58.911Z,66.08
2017-08-19T12:31:59.366Z,67.62
2017-08-19T12:32:59.788Z,69.51
2017-08-19T12:34:00.237Z,69.42
2017-08-19T12:35:00.681Z,68.74
2017-08-19T12:36:01.122Z,64.82
2017-08-19T12:37:01.573Z,63.57
2017-08-19T12:38:02.010Z,62.60
2017-08-19T12:39:02.454Z,62.89
2017-08-19T12:40:02.900Z,62.79
2017-08-19T12:41:03.350Z,62.89
2017-08-19T12:42:56.608Z,61.54
2017-08-19T12:43:57.032Z,62.02
2017-08-19T12:44:57.476Z,62.89
2017-08-19T12:45:57.921Z,61.09
2017-08-19T12:46:58.361Z,59.35
2017-08-19T12:48:51.595Z,59.83
2017-08-19T12:49:52.035Z,60.31
2017-08-19T12:50:52.479Z,60.80
2017-08-19T12:51:52.922Z,61.67
2017-08-19T12:52:53.367Z,59.93
2017-08-19T12:54:46.610Z,60.03
2017-08-19T12:55:47.038Z,60.89
2017-08-19T12:56:47.510Z,60.22
2017-08-19T12:57:47.924Z,60.13
2017-08-19T12:58:48.370Z,60.03
2017-08-19T12:59:48.814Z,59.45
2017-08-19T13:00:49.257Z,58.48
2017-08-19T13:01:49.704Z,58.29
2017-08-19T13:03:43.909Z,56.94
2017-08-19T13:04:44.363Z,56.58
2017-08-19T13:05:44.804Z,55.33
2017-08-19T13:06:45.253Z,57.04
2017-08-19T13:07:45.692Z,57.32
2017-08-19T13:08:46.143Z,56.94
2017-08-19T13:10:39.371Z,58.10
2017-08-19T13:12:32.597Z,58.97
2017-08-19T13:13:33.048Z,59.16
2017-08-19T13:14:33.495Z,58.97
2017-08-19T13:15:33.941Z,59.64
2017-08-19T13:17:27.154Z,59.61
2017-08-19T13:18:27.613Z,59.61
2017-08-19T13:19:28.054Z,57.90
2017-08-19T13:20:28.495Z,57.04
2017-08-19T13:21:28.936Z,57.71
2017-08-19T13:22:29.383Z,58.29
2017-08-19T13:24:23.594Z,60.99
2017-08-19T13:25:24.046Z,62.31
2017-08-19T13:26:24.492Z,59.80
2017-08-19T13:27:24.933Z,58.77
2017-08-19T13:28:25.373Z,57.90
2017-08-19T13:29:25.815Z,56.84
2017-08-19T13:31:19.048Z,57.35
2017-08-19T13:32:19.502Z,57.64
2017-08-19T13:33:19.948Z,56.48
2017-08-19T13:35:13.172Z,55.42
2017-08-19T13:37:06.408Z,55.78
2017-08-19T13:38:06.861Z,56.16
2017-08-19T13:39:07.310Z,55.98
2017-08-19T13:40:07.750Z,54.53
2017-08-19T13:42:00.987Z,54.94
2017-08-19T13:43:01.434Z,54.75
2017-08-19T13:44:01.882Z,52.81
2017-08-19T13:45:02.321Z,50.89
2017-08-19T13:46:02.768Z,51.17
2017-08-19T13:47:55.998Z,51.82
2017-08-19T13:48:56.453Z,51.46
2017-08-19T13:49:56.894Z,49.99
2017-08-19T13:50:57.340Z,51.89
2017-08-19T13:51:57.776Z,53.85
2017-08-19T13:52:58.222Z,52.31
2017-08-19T13:54:51.452Z,52.11
2017-08-19T13:55:51.896Z,53.05
2017-08-19T13:56:52.341Z,52.79
2017-08-19T13:57:52.781Z,51.82
2017-08-19T13:58:56.207Z,51.34
2017-08-19T14:00:46.468Z,50.18
2017-08-19T14:01:46.914Z,50.09
2017-08-19T14:02:47.359Z,50.18
2017-08-19T14:04:41.609Z,50.09
2017-08-19T14:06:34.859Z,50.67
2017-08-19T14:08:28.093Z,51.25
2017-08-19T14:09:28.549Z,52.11
2017-08-19T14:10:28.987Z,52.31
2017-08-19T14:11:29.434Z,52.31
2017-08-19T14:12:29.891Z,51.82
2017-08-19T14:14:23.112Z,51.25
2017-08-19T14:15:23.562Z,52.09
2017-08-19T14:17:16.797Z,51.73
2017-08-19T14:18:17.251Z,51.25
2017-08-19T14:19:17.694Z,51.37
2017-08-19T14:20:18.139Z,52.01
2017-08-19T14:22:11.365Z,51.53
2017-08-19T14:23:11.821Z,50.96
2017-08-19T14:24:12.260Z,51.53
2017-08-19T14:25:12.707Z,52.21
2017-08-19T14:27:05.951Z,53.66
2017-08-19T14:28:06.405Z,53.75
2017-08-19T14:29:06.842Z,53.17
2017-08-19T14:30:07.283Z,52.43
2017-08-19T14:31:07.727Z,52.40
2017-08-19T14:33:00.955Z,54.40
2017-08-19T14:34:01.407Z,54.69
2017-08-19T14:35:01.851Z,54.38
2017-08-19T14:36:02.302Z,55.18
2017-08-19T14:37:55.524Z,54.79
2017-08-19T14:38:55.970Z,53.53
2017-08-19T14:39:56.420Z,53.05
2017-08-19T14:40:56.866Z,53.27
2017-08-19T14:42:50.095Z,54.24
2017-08-19T14:43:50.542Z,54.43
2017-08-19T14:44:50.996Z,53.56
2017-08-19T14:45:51.435Z,52.76
2017-08-19T14:47:44.666Z,53.73
2017-08-19T14:48:45.120Z,53.85
2017-08-19T14:49:45.556Z,53.27
2017-08-19T14:50:46.001Z,53.95
2017-08-19T14:51:46.449Z,53.20
2017-08-19T14:53:39.680Z,51.25
2017-08-19T14:54:40.134Z,51.34
2017-08-19T14:55:40.580Z,51.46
2017-08-19T14:56:41.026Z,51.56
2017-08-19T14:57:41.470Z,51.59
2017-08-19T14:58:41.913Z,52.62
2017-08-19T15:00:35.152Z,51.56
2017-08-19T15:01:35.604Z,51.46
2017-08-19T15:02:36.048Z,51.56
2017-08-19T15:03:36.490Z,53.47
2017-08-19T15:04:36.933Z,53.56
2017-08-19T15:05:37.381Z,52.21
2017-08-19T15:07:30.608Z,53.56
2017-08-19T15:08:31.061Z,52.72
2017-08-19T15:09:31.504Z,53.56
2017-08-19T15:10:31.944Z,52.11
2017-08-19T15:11:32.397Z,53.37
2017-08-19T15:13:25.653Z,53.20
2017-08-19T15:14:26.101Z,53.27
2017-08-19T15:15:26.547Z,53.83
2017-08-19T15:16:26.992Z,54.69
2017-08-19T15:18:20.226Z,53.08
2017-08-19T15:19:20.678Z,52.33
2017-08-19T15:20:21.125Z,51.95
2017-08-19T15:21:21.575Z,51.95
2017-08-19T15:22:22.007Z,52.04
2017-08-19T15:23:22.454Z,52.23
2017-08-19T15:25:16.666Z,51.37
2017-08-19T15:26:17.117Z,51.92
2017-08-19T15:27:17.566Z,50.96
2017-08-19T15:28:18.005Z,51.53
2017-08-19T15:29:18.444Z,51.92
2017-08-19T15:30:18.890Z,52.33
2017-08-19T15:31:19.333Z,52.11
2017-08-19T15:33:12.591Z,52.50
2017-08-19T15:34:13.023Z,51.25
2017-08-19T15:35:13.460Z,52.21
2017-08-19T15:36:13.904Z,52.01